Time;durP1;ratioP1;P1;durP2;ratioP2;P2;SDS_P1;SDS_P2;PMS_P1;PMS_P2;Temp;Humidity;BMP_temperature;BMP_pressure;BME280_temperature;BME280_humidity;BME280_pressure;Samples;Min_cycle;Max_cycle;Signal;HPM_P1;HPM_P2
2022/03/15 00:00:22;;;;;;;3.97;2.73;;;2.60;96.30;;;;;;4918190;29;20518;-76
2022/03/15 00:02:49;;;;;;;3.90;2.50;;;2.00;96.30;;;;;;4935260;29;20420;-77
2022/03/15 00:05:15;;;;;;;5.50;3.33;;;1.90;96.30;;;;;;4935146;29;20411;-76
2022/03/15 00:07:42;;;;;;;2.83;2.40;;;1.60;96.30;;;;;;4934833;29;20442;-76
2022/03/15 00:10:08;;;;;;;4.40;3.10;;;1.30;96.30;;;;;;4918104;29;20959;-76
2022/03/15 00:12:34;;;;;;;8.80;2.70;;;1.10;96.30;;;;;;4935314;29;20530;-76
2022/03/15 00:14:59;;;;;;;3.67;2.97;;;0.90;96.30;;;;;;4918171;29;20419;-77
2022/03/15 00:17:26;;;;;;;6.17;3.50;;;0.80;96.30;;;;;;4918157;29;20474;-77
2022/03/15 00:19:52;;;;;;;6.10;3.17;;;0.70;96.30;;;;;;4935160;29;20168;-77
2022/03/15 00:22:17;;;;;;;6.90;3.63;;;0.70;96.30;;;;;;4934881;29;20438;-78
2022/03/15 00:24:43;;;;;;;7.63;3.13;;;0.70;96.30;;;;;;4918303;29;20182;-76
2022/03/15 00:27:10;;;;;;;8.33;3.37;;;0.60;96.30;;;;;;4934843;29;20179;-77
2022/03/15 00:29:37;;;;;;;7.47;3.00;;;0.80;96.30;;;;;;4934746;29;20258;-77
2022/03/15 00:32:03;;;;;;;4.80;2.80;;;0.80;96.30;;;;;;4934881;29;20434;-76
2022/03/15 00:34:29;;;;;;;3.37;3.07;;;0.80;96.30;;;;;;4918214;29;20763;-76
2022/03/15 00:36:54;;;;;;;5.83;3.07;;;0.80;96.30;;;;;;4917701;29;20553;-76
2022/03/15 00:39:20;;;;;;;4.47;3.03;;;0.80;96.30;;;;;;4934668;29;20190;-78
2022/03/15 00:41:45;;;;;;;8.03;3.10;;;1.00;96.30;;;;;;4917726;29;20595;-76
2022/03/15 00:44:11;;;;;;;5.53;3.00;;;1.00;96.30;;;;;;4935042;29;20223;-76
2022/03/15 00:46:36;;;;;;;5.67;3.13;;;0.90;96.30;;;;;;4934882;29;20642;-76
2022/03/15 00:49:02;;;;;;;4.47;3.20;;;0.80;96.30;;;;;;4917655;29;20180;-78
2022/03/15 00:51:29;;;;;;;5.67;3.17;;;0.90;96.30;;;;;;4917739;29;20199;-76
2022/03/15 00:53:55;;;;;;;8.37;3.53;;;0.80;96.30;;;;;;4918039;29;20179;-78
2022/03/15 00:56:20;;;;;;;5.43;2.97;;;0.70;96.30;;;;;;4934969;29;20415;-76
2022/03/15 00:58:46;;;;;;;5.83;3.20;;;0.70;96.30;;;;;;4917629;29;20951;-76
2022/03/15 05:01:59;;;;;;;6.47;4.37;;;-0.50;96.30;;;;;;5187283;23;20497;-77
2022/03/15 05:04:25;;;;;;;8.00;3.90;;;-0.50;96.30;;;;;;4922682;29;20741;-79
2022/03/15 05:06:50;;;;;;;5.63;4.20;;;-0.40;96.30;;;;;;4922123;29;20175;-78
2022/03/15 05:09:16;;;;;;;18.07;8.37;;;-0.40;96.30;;;;;;4939032;29;20262;-79
2022/03/15 05:11:45;;;;;;;22.07;10.93;;;-0.40;96.30;;;;;;4940631;29;20202;-78
2022/03/15 05:14:11;;;;;;;49.67;24.33;;;-0.40;96.30;;;;;;4940714;29;20171;-77
2022/03/15 05:16:36;;;;;;;46.87;23.50;;;-0.50;96.30;;;;;;4945831;29;20481;-77
2022/03/15 05:19:02;;;;;;;21.80;14.63;;;-0.50;96.30;;;;;;4929766;29;20219;-79
2022/03/15 05:31:49;;;;;;;22.37;13.37;;;-0.30;96.30;;;;;;5362419;23;20498;-75
2022/03/15 05:34:16;;;;;;;15.33;9.57;;;-0.40;96.30;;;;;;4937899;29;20411;-76
2022/03/15 05:36:41;;;;;;;21.00;12.30;;;-0.40;96.30;;;;;;4937870;29;20430;-76
2022/03/15 05:39:07;;;;;;;12.03;6.90;;;-0.50;96.30;;;;;;4920274;29;20419;-77
2022/03/15 05:41:32;;;;;;;17.20;8.83;;;-0.40;96.30;;;;;;4920696;29;20191;-78
2022/03/15 05:43:58;;;;;;;16.23;8.63;;;-0.50;96.30;;;;;;4937792;29;20645;-78
2022/03/15 05:46:23;;;;;;;9.20;5.73;;;-0.50;96.30;;;;;;4943721;29;20178;-77
2022/03/15 05:48:49;;;;;;;13.57;6.53;;;-0.50;96.30;;;;;;4941315;29;20669;-77
2022/03/15 05:51:14;;;;;;;17.03;10.63;;;-0.50;96.30;;;;;;4920450;29;20207;-77
2022/03/15 05:53:40;;;;;;;12.13;8.30;;;-0.50;96.30;;;;;;4937579;29;20176;-78
2022/03/15 05:56:06;;;;;;;11.97;7.60;;;-0.50;96.30;;;;;;4937629;29;20690;-77
2022/03/15 05:58:31;;;;;;;19.10;13.60;;;-0.40;96.30;;;;;;4936749;29;20312;-76
2022/03/15 06:00:57;;;;;;;16.07;10.73;;;-0.30;96.30;;;;;;4935402;29;20891;-78
2022/03/15 06:03:22;;;;;;;12.70;8.60;;;-0.20;96.30;;;;;;4918937;29;20173;-77
2022/03/15 06:05:51;;;;;;;9.37;6.37;;;-0.10;96.30;;;;;;4918196;29;20255;-77
2022/03/15 06:08:17;;;;;;;16.70;8.60;;;-0.10;96.30;;;;;;4918149;29;20183;-77
2022/03/15 06:10:42;;;;;;;6.97;5.03;;;0.10;96.30;;;;;;4930258;29;20546;-77
2022/03/15 06:13:08;;;;;;;21.57;15.33;;;0.20;96.30;;;;;;4937022;29;20194;-77
2022/03/15 06:15:33;;;;;;;18.10;10.57;;;0.20;96.30;;;;;;4920014;29;20190;-77
2022/03/15 06:18:01;;;;;;;15.30;10.97;;;0.30;96.30;;;;;;4936430;29;20221;-79
2022/03/15 06:20:27;;;;;;;20.77;12.50;;;0.30;96.30;;;;;;4936809;29;20199;-80
2022/03/15 06:22:53;;;;;;;14.60;8.20;;;0.40;96.30;;;;;;4937175;29;20424;-78
2022/03/15 06:25:20;;;;;;;6.47;3.23;;;0.50;96.30;;;;;;4936791;29;20423;-79
2022/03/15 06:27:47;;;;;;;5.83;3.70;;;0.70;96.30;;;;;;4919375;29;20463;-79
2022/03/15 06:30:16;;;;;;;7.80;5.07;;;0.80;96.30;;;;;;4936992;29;20514;-79
2022/03/15 06:32:41;;;;;;;6.53;3.83;;;0.80;96.30;;;;;;4919760;29;20510;-80
2022/03/15 06:35:09;;;;;;;14.40;4.83;;;0.90;96.30;;;;;;4937133;29;20427;-79
2022/03/15 06:37:39;;;;;;;9.13;6.10;;;1.00;96.30;;;;;;4920876;29;20674;-79
2022/03/15 06:40:09;;;;;;;10.23;5.10;;;1.10;96.30;;;;;;4938387;29;20420;-79
2022/03/15 06:42:34;;;;;;;7.47;4.60;;;1.20;96.30;;;;;;4917630;29;20481;-79
2022/03/15 06:45:01;;;;;;;6.40;4.00;;;1.30;96.30;;;;;;4917504;29;20416;-78
2022/03/15 06:47:26;;;;;;;7.63;4.93;;;1.40;96.30;;;;;;4917144;29;20267;-78
2022/03/15 06:49:52;;;;;;;10.87;5.50;;;1.40;96.30;;;;;;4915985;29;20514;-79
2022/03/15 06:52:17;;;;;;;9.80;4.30;;;1.60;96.30;;;;;;4936387;29;20211;-77
2022/03/15 06:54:43;;;;;;;7.57;5.90;;;1.50;96.30;;;;;;4919297;29;20187;-81
2022/03/15 06:57:08;;;;;;;12.90;6.60;;;1.60;96.30;;;;;;4915701;29;20211;-78
2022/03/15 06:59:34;;;;;;;7.37;5.33;;;1.80;96.30;;;;;;4904507;29;20270;-79
2022/03/15 07:02:00;;;;;;;9.93;6.10;;;2.10;96.30;;;;;;4920927;29;20204;-81
2022/03/15 07:04:26;;;;;;;4.90;4.37;;;2.20;96.30;;;;;;4928716;29;20211;-79
2022/03/15 07:06:51;;;;;;;7.03;3.53;;;2.40;96.30;;;;;;4905862;29;20654;-79
2022/03/15 07:09:17;;;;;;;11.73;7.37;;;2.50;96.30;;;;;;4899683;29;20188;-79
2022/03/15 07:11:42;;;;;;;6.27;4.00;;;2.60;96.30;;;;;;4926917;29;20200;-79
2022/03/15 07:14:08;;;;;;;4.97;3.10;;;2.50;96.30;;;;;;4918497;29;20190;-79
2022/03/15 07:16:34;;;;;;;4.83;3.07;;;2.70;96.30;;;;;;4925808;29;20193;-79
2022/03/15 07:18:59;;;;;;;5.47;3.07;;;2.70;96.30;;;;;;4901539;29;20192;-79
2022/03/15 07:21:25;;;;;;;4.47;3.00;;;2.80;96.30;;;;;;4900008;29;20984;-79
2022/03/15 07:23:50;;;;;;;8.50;3.90;;;2.80;96.30;;;;;;4920374;29;20212;-78
2022/03/15 07:26:16;;;;;;;5.70;3.40;;;2.90;96.30;;;;;;4905706;29;20187;-78
2022/03/15 07:28:42;;;;;;;8.27;3.27;;;3.00;96.30;;;;;;4924666;29;20176;-79
2022/03/15 07:31:07;;;;;;;5.47;3.67;;;3.20;96.30;;;;;;4925045;29;20563;-78
2022/03/15 07:33:33;;;;;;;12.03;5.30;;;3.20;96.30;;;;;;4911634;29;20260;-78
2022/03/15 07:35:59;;;;;;;4.70;3.43;;;3.40;96.30;;;;;;4918590;29;20259;-78
2022/03/15 07:38:25;;;;;;;6.83;3.13;;;3.60;96.30;;;;;;4924725;29;20268;-79
2022/03/15 07:40:52;;;;;;;5.93;3.30;;;3.90;96.30;;;;;;4905580;29;20502;-78
2022/03/15 07:43:23;;;;;;;4.10;3.17;;;4.10;96.30;;;;;;4931650;29;20483;-78
2022/03/15 07:45:50;;;;;;;5.30;3.60;;;4.20;96.30;;;;;;4917804;29;20893;-78
2022/03/15 07:48:18;;;;;;;10.83;3.47;;;4.30;96.30;;;;;;4915878;29;20416;-78
2022/03/15 07:50:43;;;;;;;4.73;3.63;;;4.50;96.30;;;;;;4918725;29;20444;-78
2022/03/15 07:53:09;;;;;;;7.77;3.90;;;4.50;96.30;;;;;;4901263;29;20440;-78
2022/03/15 07:55:35;;;;;;;7.53;5.37;;;4.60;96.30;;;;;;4923603;29;20182;-78
2022/03/15 07:58:01;;;;;;;10.70;5.20;;;4.50;96.30;;;;;;4910192;29;20200;-77
2022/03/15 08:00:27;;;;;;;7.07;3.90;;;4.60;96.30;;;;;;4904411;29;20216;-78
2022/03/15 08:02:52;;;;;;;6.87;4.13;;;4.70;96.30;;;;;;4900240;29;20432;-77
2022/03/15 08:05:19;;;;;;;8.27;3.83;;;4.80;96.30;;;;;;4901286;29;20184;-78
2022/03/15 08:07:44;;;;;;;5.80;3.27;;;4.90;96.30;;;;;;4925865;29;20183;-77
2022/03/15 08:10:13;;;;;;;17.53;8.83;;;5.00;96.30;;;;;;4903128;29;21023;-76
2022/03/15 08:12:39;;;;;;;10.50;5.57;;;5.10;96.30;;;;;;4927945;29;20179;-76
2022/03/15 08:15:06;;;;;;;5.03;3.10;;;5.10;96.30;;;;;;4931027;29;20930;-78
2022/03/15 08:17:35;;;;;;;7.13;3.73;;;5.30;96.30;;;;;;4908387;29;20448;-77
2022/03/15 08:20:02;;;;;;;5.37;3.47;;;5.50;96.30;;;;;;4929106;29;20519;-75
2022/03/15 08:22:30;;;;;;;9.17;4.97;;;5.60;96.30;;;;;;4934788;29;20435;-77
2022/03/15 08:24:56;;;;;;;5.60;3.80;;;5.70;96.30;;;;;;4935069;29;20789;-76
2022/03/15 08:27:22;;;;;;;3.70;3.30;;;5.90;96.30;;;;;;4933162;29;20921;-76
2022/03/15 08:29:48;;;;;;;4.70;2.80;;;6.30;96.30;;;;;;4930476;29;20546;-76
2022/03/15 08:32:14;;;;;;;7.83;5.07;;;6.50;96.30;;;;;;4912630;29;20483;-77
2022/03/15 08:34:41;;;;;;;4.20;3.50;;;6.40;96.30;;;;;;4895037;29;20188;-76
2022/03/15 08:37:06;;;;;;;8.53;3.40;;;6.50;96.30;;;;;;4924626;29;20455;-76
2022/03/15 08:39:32;;;;;;;9.93;3.53;;;6.50;96.30;;;;;;4934525;29;20486;-76
2022/03/15 08:41:57;;;;;;;4.57;3.40;;;6.60;96.30;;;;;;4934591;29;20228;-76
2022/03/15 08:44:23;;;;;;;5.00;3.30;;;6.60;96.30;;;;;;4934793;29;20211;-75
2022/03/15 08:46:50;;;;;;;5.73;3.57;;;6.70;96.30;;;;;;4934677;29;20187;-75
2022/03/15 08:49:17;;;;;;;4.27;3.57;;;6.60;96.30;;;;;;4934559;29;20498;-76
2022/03/15 08:51:44;;;;;;;4.80;3.73;;;6.70;96.30;;;;;;4932928;29;20526;-75
2022/03/15 08:54:09;;;;;;;6.77;3.63;;;6.80;96.30;;;;;;4917531;29;20435;-75
2022/03/15 08:56:39;;;;;;;5.87;3.67;;;7.30;96.30;;;;;;4899927;29;20483;-76
2022/03/15 08:59:04;;;;;;;9.20;4.53;;;7.50;96.30;;;;;;4911802;29;20179;-76
2022/03/15 09:01:30;;;;;;;9.83;5.40;;;7.90;96.30;;;;;;4919421;29;20515;-75
2022/03/15 09:03:56;;;;;;;4.83;3.90;;;8.10;96.30;;;;;;4917679;29;20214;-75
2022/03/15 09:06:21;;;;;;;6.07;3.90;;;8.20;96.30;;;;;;4919047;29;20676;-77
2022/03/15 09:08:46;;;;;;;7.43;3.97;;;8.20;96.30;;;;;;4897054;29;20188;-75
2022/03/15 09:11:12;;;;;;;5.37;4.60;;;8.30;96.30;;;;;;4915674;29;20685;-75
2022/03/15 09:13:38;;;;;;;6.00;4.03;;;8.30;96.30;;;;;;4915731;29;20177;-77
2022/03/15 09:16:05;;;;;;;6.87;4.30;;;8.30;96.30;;;;;;4921578;29;20184;-75
2022/03/15 09:18:32;;;;;;;8.17;4.60;;;8.30;96.30;;;;;;4934270;29;20203;-75
2022/03/15 09:20:58;;;;;;;7.10;4.10;;;8.30;96.30;;;;;;4934624;29;20423;-76
2022/03/15 09:23:23;;;;;;;5.80;4.03;;;7.80;96.30;;;;;;4902245;29;20424;-76
2022/03/15 09:25:49;;;;;;;7.00;4.43;;;8.00;96.30;;;;;;4915347;29;20472;-75
2022/03/15 09:28:16;;;;;;;8.70;5.90;;;8.30;96.30;;;;;;4915236;29;20180;-76
2022/03/15 09:30:43;;;;;;;7.67;5.50;;;8.40;96.30;;;;;;4927020;29;20640;-75
2022/03/15 09:33:08;;;;;;;8.07;4.90;;;8.60;96.30;;;;;;4917184;29;20434;-76
2022/03/15 09:35:35;;;;;;;6.40;4.40;;;8.70;96.30;;;;;;4917490;29;20447;-75
2022/03/15 09:38:02;;;;;;;6.33;4.20;;;8.80;96.30;;;;;;4936558;29;20481;-75
2022/03/15 09:40:28;;;;;;;8.60;4.60;;;9.10;96.30;;;;;;4937374;29;20419;-76
2022/03/15 09:43:00;;;;;;;6.60;4.77;;;9.20;96.30;;;;;;4929698;29;20487;-75
2022/03/15 09:45:30;;;;;;;25.13;9.57;;;9.60;96.30;;;;;;4920762;29;20431;-76
2022/03/15 09:47:58;;;;;;;23.47;7.97;;;9.70;96.30;;;;;;4937530;29;20438;-76
2022/03/15 09:50:24;;;;;;;14.70;5.23;;;9.70;96.30;;;;;;4937490;29;20513;-75
2022/03/15 09:52:53;;;;;;;9.07;4.80;;;9.90;96.30;;;;;;4937515;29;20936;-76
2022/03/15 09:55:20;;;;;;;7.60;4.87;;;9.90;96.30;;;;;;4937462;29;20435;-76
2022/03/15 09:57:45;;;;;;;20.83;8.57;;;10.10;96.30;;;;;;4919854;29;20505;-76
2022/03/15 10:00:12;;;;;;;8.00;3.93;;;10.20;96.30;;;;;;4936735;29;20466;-77
2022/03/15 10:02:40;;;;;;;8.50;4.80;;;9.90;96.30;;;;;;4937566;29;20171;-78
2022/03/15 10:05:06;;;;;;;6.00;3.50;;;10.20;96.30;;;;;;4914063;29;20448;-77
2022/03/15 10:07:32;;;;;;;7.47;3.40;;;10.50;96.30;;;;;;4901672;29;20439;-78
2022/03/15 10:10:00;;;;;;;6.73;4.50;;;10.40;96.30;;;;;;4914354;29;20420;-76
2022/03/15 10:12:26;;;;;;;7.30;3.73;;;10.80;96.30;;;;;;4931284;29;20869;-76
2022/03/15 10:14:51;;;;;;;6.07;3.73;;;11.00;96.30;;;;;;4932267;29;20428;-77
2022/03/15 10:17:17;;;;;;;8.00;4.67;;;10.90;96.30;;;;;;4935459;29;20206;-76
2022/03/15 10:19:56;;;;;;;8.03;4.10;;;11.00;96.30;;;;;;4937100;29;20557;-77
2022/03/15 10:22:23;;;;;;;8.10;4.60;;;10.80;96.30;;;;;;4920000;29;20211;-78
2022/03/15 10:24:50;;;;;;;6.47;3.80;;;11.00;96.30;;;;;;4918599;29;20424;-77
2022/03/15 10:27:16;;;;;;;9.10;3.73;;;10.90;96.30;;;;;;4916211;29;21591;-79
2022/03/15 10:29:43;;;;;;;6.60;3.80;;;10.50;96.30;;;;;;4901888;29;20470;-79
2022/03/15 10:32:09;;;;;;;8.90;3.87;;;10.50;96.30;;;;;;4904397;29;20556;-76
2022/03/15 10:34:36;;;;;;;7.40;3.73;;;10.70;96.30;;;;;;4920876;29;20447;-76
2022/03/15 10:37:02;;;;;;;7.67;4.43;;;11.20;96.30;;;;;;4917853;29;20502;-77
2022/03/15 10:39:28;;;;;;;6.97;3.63;;;11.40;96.30;;;;;;4917834;29;20437;-77
2022/03/15 10:42:00;;;;;;;10.37;4.10;;;11.70;96.30;;;;;;4932452;29;20469;-78
2022/03/15 10:44:36;;;;;;;9.17;4.47;;;11.70;96.30;;;;;;4936359;29;20633;-78
2022/03/15 10:47:17;;;;;;;8.13;3.40;;;11.60;96.30;;;;;;4936744;29;20415;-79
2022/03/15 10:49:50;;;;;;;8.40;3.20;;;11.60;96.30;;;;;;4926569;29;20423;-79
2022/03/15 10:52:40;;;;;;;8.17;4.27;;;11.90;96.30;;;;;;4936431;29;20532;-78
2022/03/15 10:55:18;;;;;;;8.97;3.63;;;12.00;96.30;;;;;;4933819;29;20786;-79
2022/03/15 10:57:51;;;;;;;9.00;5.00;;;11.90;96.30;;;;;;4933942;29;20463;-79
2022/03/15 11:00:19;;;;;;;6.10;4.20;;;11.80;96.30;;;;;;4931211;29;22027;-78
2022/03/15 11:02:46;;;;;;;9.00;4.03;;;11.70;96.30;;;;;;4937944;29;20932;-79
2022/03/15 11:05:12;;;;;;;6.80;4.00;;;11.60;96.30;;;;;;4956942;29;20475;-80
2022/03/15 11:07:42;;;;;;;7.30;3.83;;;11.60;96.30;;;;;;4960999;29;20450;-79
2022/03/15 11:10:14;;;;;;;8.87;5.00;;;11.50;96.30;;;;;;4960354;29;20212;-78
2022/03/15 11:12:57;;;;;;;7.93;4.03;;;11.60;96.30;;;;;;4960477;29;20467;-77
2022/03/15 11:15:28;;;;;;;11.20;4.97;;;11.80;96.30;;;;;;4928220;29;20424;-76
2022/03/15 11:17:58;;;;;;;9.03;4.40;;;11.90;96.30;;;;;;4919239;29;20467;-76
2022/03/15 11:20:25;;;;;;;10.83;4.47;;;11.80;96.30;;;;;;4933608;29;20420;-77
2022/03/15 11:22:52;;;;;;;6.80;3.50;;;11.80;96.30;;;;;;4902902;29;20421;-77
2022/03/15 11:25:20;;;;;;;10.33;4.30;;;11.60;96.30;;;;;;4925865;29;20495;-80
2022/03/15 11:27:47;;;;;;;9.40;4.27;;;11.60;96.30;;;;;;4917792;29;20438;-79
2022/03/15 11:30:15;;;;;;;6.10;3.37;;;11.40;96.30;;;;;;4896653;29;20432;-79
2022/03/15 11:32:42;;;;;;;9.20;4.50;;;11.50;96.30;;;;;;4918927;29;20444;-76
2022/03/15 11:35:10;;;;;;;7.97;3.63;;;11.60;96.30;;;;;;4932800;29;20554;-76
2022/03/15 11:37:37;;;;;;;6.23;4.10;;;11.50;96.30;;;;;;4932971;29;20452;-76
2022/03/15 11:40:07;;;;;;;6.83;4.13;;;11.60;96.30;;;;;;4932866;29;20431;-77
2022/03/15 11:42:35;;;;;;;7.07;3.90;;;11.60;96.30;;;;;;4931102;29;20805;-77
2022/03/15 11:45:29;;;;;;;8.00;4.13;;;11.70;96.30;;;;;;4916718;29;20861;-76
2022/03/15 11:48:29;;;;;;;8.00;4.50;;;11.60;96.30;;;;;;4923138;29;20409;-77
2022/03/15 16:33:05;;;;;;;12.37;7.20;;;7.40;96.30;;;;;;5435437;23;20504;-78
2022/03/15 16:35:31;;;;;;;13.53;8.33;;;7.30;96.30;;;;;;4973682;28;20789;-78
2022/03/15 16:37:57;;;;;;;10.30;6.63;;;7.30;96.30;;;;;;4957488;28;20461;-79
2022/03/15 16:40:23;;;;;;;13.87;8.03;;;7.10;96.30;;;;;;4956051;28;20179;-78
2022/03/15 16:42:50;;;;;;;27.93;20.30;;;7.00;96.30;;;;;;4955905;28;20421;-78
2022/03/15 16:45:18;;;;;;;18.33;10.33;;;6.80;96.30;;;;;;4973187;28;20448;-77
2022/03/15 16:47:44;;;;;;;16.50;8.80;;;6.60;96.30;;;;;;4971486;28;20434;-77
2022/03/15 16:50:10;;;;;;;14.97;9.70;;;6.50;96.30;;;;;;4973324;28;20991;-76
2022/03/15 16:52:35;;;;;;;10.83;7.33;;;6.60;96.30;;;;;;4973217;28;20923;-78
2022/03/15 16:55:01;;;;;;;12.40;8.87;;;6.60;96.30;;;;;;4956419;28;20432;-78
2022/03/15 16:57:28;;;;;;;13.70;8.50;;;6.60;96.30;;;;;;4974076;28;20288;-80
2022/03/15 16:59:57;;;;;;;11.27;8.30;;;6.60;96.30;;;;;;4956999;28;20325;-78
2022/03/15 17:02:23;;;;;;;24.07;13.87;;;6.60;96.30;;;;;;4979845;28;20450;-79
2022/03/15 17:07:34;;;;;;;30.07;16.43;;;6.50;96.30;;;;;;4974448;28;20536;-78
2022/03/15 17:09:59;;;;;;;23.13;9.97;;;6.40;96.30;;;;;;4949343;28;20874;-78
2022/03/15 17:12:28;;;;;;;16.60;9.70;;;6.30;96.30;;;;;;4974324;28;20610;-78
2022/03/15 17:14:54;;;;;;;13.93;7.97;;;6.30;96.30;;;;;;4948969;29;20289;-74
2022/03/15 17:17:19;;;;;;;26.73;9.80;;;6.20;96.30;;;;;;4964945;28;20979;-75
2022/03/15 17:19:48;;;;;;;17.80;11.87;;;6.10;96.30;;;;;;4941190;28;20544;-75
2022/03/15 17:22:21;;;;;;;21.90;10.20;;;6.00;96.30;;;;;;4972447;28;20265;-78
2022/03/15 17:25:02;;;;;;;19.07;10.23;;;5.80;96.30;;;;;;4944075;29;20468;-76
2022/03/15 17:27:34;;;;;;;17.80;11.50;;;5.80;96.30;;;;;;4954135;28;20421;-77
2022/03/15 17:30:10;;;;;;;20.23;11.53;;;5.70;96.30;;;;;;4954653;29;20509;-76
2022/03/15 17:32:37;;;;;;;21.73;11.20;;;5.70;96.30;;;;;;4951134;29;20501;-78
2022/03/15 17:35:06;;;;;;;16.20;9.20;;;5.60;96.30;;;;;;4937242;29;20450;-75
2022/03/15 17:37:32;;;;;;;18.40;8.50;;;5.60;96.30;;;;;;4952479;28;20462;-78
2022/03/15 17:39:57;;;;;;;15.40;10.13;;;5.50;96.30;;;;;;4957432;28;20946;-79
2022/03/15 17:42:25;;;;;;;12.90;9.30;;;5.50;96.30;;;;;;4975060;28;20198;-74
2022/03/15 17:44:56;;;;;;;16.07;10.47;;;5.50;96.30;;;;;;4955466;28;20182;-75
2022/03/15 17:47:22;;;;;;;17.07;9.40;;;5.40;96.30;;;;;;4972672;28;20737;-75
2022/03/15 17:49:57;;;;;;;17.93;9.50;;;5.40;96.30;;;;;;4957816;28;20434;-76
2022/03/15 17:52:24;;;;;;;17.10;9.27;;;5.40;96.30;;;;;;4952989;29;20190;-74
2022/03/15 17:54:49;;;;;;;12.90;8.37;;;5.30;96.30;;;;;;4953087;29;20419;-74
2022/03/15 17:57:21;;;;;;;14.60;8.70;;;5.20;96.30;;;;;;4949684;28;20829;-75
2022/03/15 17:59:59;;;;;;;10.80;8.70;;;5.20;96.30;;;;;;4947215;29;20585;-81
2022/03/15 18:02:32;;;;;;;21.00;9.17;;;5.20;96.30;;;;;;4965452;28;20445;-75
2022/03/15 18:05:04;;;;;;;13.30;10.30;;;5.20;96.30;;;;;;4943007;29;20415;-78
2022/03/15 18:07:31;;;;;;;12.67;9.47;;;5.20;96.30;;;;;;4955622;29;20399;-74
2022/03/15 18:09:57;;;;;;;13.30;10.03;;;5.10;96.30;;;;;;4963205;28;20432;-74
2022/03/15 18:12:26;;;;;;;19.60;11.77;;;5.10;96.30;;;;;;4963614;28;20508;-73
2022/03/15 18:14:56;;;;;;;17.43;10.13;;;5.10;96.30;;;;;;4960473;28;20414;-76
2022/03/15 18:17:32;;;;;;;16.10;10.20;;;5.10;96.30;;;;;;4957742;28;20949;-76
2022/03/15 18:19:57;;;;;;;12.67;10.13;;;5.10;96.30;;;;;;4968405;28;20418;-76
2022/03/15 18:22:23;;;;;;;13.13;10.13;;;5.10;96.30;;;;;;4974726;28;20796;-76
2022/03/15 18:24:50;;;;;;;13.13;9.80;;;5.00;96.30;;;;;;4961440;28;20175;-76
2022/03/15 18:27:18;;;;;;;18.07;11.43;;;5.00;96.30;;;;;;4940663;28;20175;-76
2022/03/15 18:29:45;;;;;;;15.10;9.60;;;5.00;96.30;;;;;;4969168;28;20928;-76
2022/03/15 18:32:10;;;;;;;16.10;10.73;;;5.00;96.30;;;;;;4956242;29;21236;-77
2022/03/15 18:34:36;;;;;;;17.20;12.27;;;5.00;96.30;;;;;;4955908;29;20466;-75
2022/03/15 18:37:01;;;;;;;14.47;11.87;;;5.00;96.30;;;;;;4955884;28;20211;-75
2022/03/15 18:39:27;;;;;;;20.80;9.97;;;4.90;96.30;;;;;;4958268;28;20234;-75
2022/03/15 18:41:53;;;;;;;17.20;10.90;;;4.90;96.30;;;;;;4966729;28;20214;-76
2022/03/15 18:44:19;;;;;;;17.27;10.07;;;4.90;96.30;;;;;;4965906;28;20257;-76
2022/03/15 18:46:47;;;;;;;15.87;10.50;;;4.90;96.30;;;;;;4941702;29;20286;-76
2022/03/15 18:49:16;;;;;;;22.10;12.27;;;4.90;96.30;;;;;;4963752;28;20558;-76
2022/03/15 18:51:43;;;;;;;15.90;10.57;;;4.90;96.30;;;;;;4956034;29;20514;-76
2022/03/15 18:54:11;;;;;;;15.87;10.20;;;4.90;96.30;;;;;;4956433;29;20411;-76
2022/03/15 18:56:37;;;;;;;24.43;11.10;;;4.80;96.30;;;;;;4963334;28;20908;-75
2022/03/15 18:59:03;;;;;;;18.30;11.40;;;4.80;96.30;;;;;;4961618;28;20468;-75
2022/03/15 19:01:32;;;;;;;17.73;11.87;;;4.80;96.30;;;;;;5073904;23;20485;-74
2022/03/15 19:04:02;;;;;;;23.50;11.20;;;4.80;96.30;;;;;;4985930;28;20177;-74
2022/03/15 19:06:29;;;;;;;18.50;11.23;;;4.80;96.30;;;;;;4994045;28;20422;-75
2022/03/15 19:08:55;;;;;;;24.83;13.37;;;4.70;96.30;;;;;;4993250;28;20424;-75
2022/03/15 19:11:24;;;;;;;20.67;14.80;;;4.70;96.30;;;;;;4972919;28;20526;-75
2022/03/15 19:13:51;;;;;;;19.33;13.70;;;4.80;96.30;;;;;;4951552;28;20417;-75
2022/03/15 19:16:18;;;;;;;18.37;13.17;;;4.80;96.30;;;;;;4956828;28;20798;-76
2022/03/15 19:18:49;;;;;;;19.10;14.63;;;4.80;96.30;;;;;;4951202;29;20459;-74
2022/03/15 19:45:38;;;;;;;20.40;11.70;;;4.70;96.30;;;;;;4858177;29;20432;-74
2022/03/15 19:48:05;;;;;;;13.73;11.70;;;4.70;96.30;;;;;;4857619;29;20895;-75
2022/03/15 19:50:32;;;;;;;14.23;11.53;;;4.70;96.30;;;;;;4901609;29;20938;-74
2022/03/15 19:52:58;;;;;;;17.50;11.47;;;4.70;96.30;;;;;;4927274;29;20937;-75
2022/03/15 19:55:24;;;;;;;14.80;12.10;;;4.70;96.30;;;;;;4932309;29;21026;-74
2022/03/15 19:57:50;;;;;;;12.57;9.90;;;4.70;96.30;;;;;;4916291;29;20957;-74
2022/03/15 20:13:15;;;;;;;14.83;10.60;;;4.70;96.30;;;;;;4839513;29;20822;-74
2022/03/15 20:15:44;;;;;;;16.53;10.53;;;4.70;96.30;;;;;;4842237;29;20982;-74
2022/03/15 20:18:10;;;;;;;13.30;10.80;;;4.70;96.30;;;;;;4915080;29;20551;-74
2022/03/15 20:20:42;;;;;;;12.47;10.20;;;4.70;96.30;;;;;;4915471;29;20428;-74
2022/03/15 20:23:12;;;;;;;21.33;10.63;;;4.70;96.30;;;;;;4915654;29;20430;-74
2022/03/15 20:25:42;;;;;;;12.93;10.87;;;4.70;96.30;;;;;;4915630;29;20515;-75
2022/03/15 20:28:09;;;;;;;10.90;9.80;;;4.70;96.30;;;;;;4914993;29;20416;-75
2022/03/15 20:30:38;;;;;;;14.50;11.40;;;4.70;96.30;;;;;;4915368;29;20942;-79
2022/03/15 20:33:06;;;;;;;11.50;10.13;;;4.70;96.30;;;;;;4916092;29;20914;-76
2022/03/15 20:35:34;;;;;;;12.07;10.37;;;4.70;96.30;;;;;;4914338;29;20476;-77
2022/03/15 20:38:00;;;;;;;17.10;10.53;;;4.70;96.30;;;;;;4913438;29;20456;-76
2022/03/15 20:40:27;;;;;;;11.80;9.93;;;4.80;96.30;;;;;;4915390;29;20408;-78
2022/03/15 20:45:42;;;;;;;15.00;11.63;;;4.90;96.30;;;;;;4896811;29;20947;-75
2022/03/15 20:48:07;;;;;;;15.10;10.43;;;4.90;96.30;;;;;;4913922;29;20556;-76
2022/03/15 20:50:35;;;;;;;16.33;11.40;;;4.90;96.30;;;;;;4915084;29;20526;-75
2022/03/15 20:53:03;;;;;;;12.57;10.43;;;4.90;96.30;;;;;;4892915;29;20180;-75
2022/03/15 20:55:35;;;;;;;24.07;12.27;;;4.90;96.30;;;;;;4915690;29;20762;-75
2022/03/15 20:58:00;;;;;;;13.00;10.80;;;4.90;96.30;;;;;;4906609;29;20579;-81
2022/03/15 21:00:26;;;;;;;13.20;11.00;;;4.80;96.30;;;;;;4896426;29;20575;-75
2022/03/15 21:02:51;;;;;;;12.60;10.50;;;4.80;96.30;;;;;;4898796;29;20542;-78
2022/03/15 21:05:17;;;;;;;12.70;9.93;;;4.80;96.30;;;;;;4879593;29;20288;-76
2022/03/15 21:07:43;;;;;;;11.63;10.33;;;4.80;96.30;;;;;;4896074;29;20300;-76
2022/03/15 21:10:09;;;;;;;15.47;10.70;;;4.90;96.30;;;;;;4879766;29;20425;-75
2022/03/15 21:12:38;;;;;;;13.93;10.53;;;4.80;96.30;;;;;;4879469;29;20663;-76
2022/03/15 21:15:05;;;;;;;12.77;10.70;;;4.80;96.30;;;;;;4895994;29;20793;-77
2022/03/15 21:17:33;;;;;;;13.50;10.80;;;4.80;96.30;;;;;;4895925;29;20477;-78
2022/03/15 21:19:59;;;;;;;9.53;8.63;;;4.80;96.30;;;;;;4880042;29;20422;-77
2022/03/15 21:22:27;;;;;;;12.13;10.83;;;4.80;96.30;;;;;;4896287;29;20429;-79
2022/03/15 21:24:54;;;;;;;10.13;7.83;;;4.80;96.30;;;;;;4896455;29;20441;-80
2022/03/15 21:27:20;;;;;;;10.93;8.80;;;4.80;96.30;;;;;;4896269;29;20421;-78
2022/03/15 21:29:51;;;;;;;11.20;10.00;;;4.80;96.30;;;;;;4879103;29;20456;-78
2022/03/15 21:32:19;;;;;;;10.80;8.60;;;4.70;96.30;;;;;;4896476;29;20974;-77
2022/03/15 21:34:46;;;;;;;9.57;8.57;;;4.70;96.30;;;;;;4900032;29;20425;-77
2022/03/15 21:37:12;;;;;;;12.17;9.00;;;4.70;96.30;;;;;;4899723;29;20418;-80
2022/03/15 21:39:38;;;;;;;9.37;8.07;;;4.70;96.30;;;;;;4882658;29;20428;-77
2022/03/15 21:42:05;;;;;;;8.70;7.70;;;4.60;96.30;;;;;;4899835;29;20232;-78
2022/03/15 21:44:48;;;;;;;11.80;8.07;;;4.60;96.30;;;;;;4899689;29;20982;-77
2022/03/15 21:47:15;;;;;;;10.73;8.20;;;4.70;96.30;;;;;;4899564;29;20393;-78
2022/03/15 21:49:41;;;;;;;9.53;7.67;;;4.70;96.30;;;;;;4882514;29;20429;-78
2022/03/15 21:52:07;;;;;;;11.50;7.80;;;4.70;96.30;;;;;;4882838;29;20448;-77
2022/03/15 21:54:33;;;;;;;7.80;7.00;;;4.70;96.30;;;;;;4882725;29;20417;-78
2022/03/15 21:56:59;;;;;;;11.00;8.67;;;4.70;96.30;;;;;;4899513;29;20264;-77
2022/03/15 21:59:25;;;;;;;11.63;9.00;;;4.70;96.30;;;;;;4899044;29;20185;-78
2022/03/15 22:01:52;;;;;;;10.60;8.50;;;4.70;96.30;;;;;;4882995;29;20437;-78
2022/03/15 22:04:19;;;;;;;8.33;7.47;;;4.70;96.30;;;;;;4882975;29;20208;-78
2022/03/15 22:06:45;;;;;;;12.50;8.40;;;4.70;96.30;;;;;;4882794;29;20437;-80
2022/03/15 22:09:11;;;;;;;8.57;7.27;;;4.70;96.30;;;;;;4882217;29;20425;-76
2022/03/15 22:11:37;;;;;;;9.83;8.83;;;4.70;96.30;;;;;;4899429;29;20448;-80
2022/03/15 22:14:02;;;;;;;12.67;8.30;;;4.70;96.30;;;;;;4881870;29;20204;-77
2022/03/15 22:16:28;;;;;;;12.90;8.50;;;4.70;96.30;;;;;;4899284;29;20165;-78
2022/03/15 22:18:53;;;;;;;9.20;7.87;;;4.70;96.30;;;;;;4898552;29;20300;-78
2022/03/15 22:21:21;;;;;;;9.93;8.70;;;4.70;96.30;;;;;;4897907;29;20568;-80
2022/03/15 22:23:47;;;;;;;15.83;10.90;;;4.70;96.30;;;;;;4885666;29;20600;-78